createdAt,value
2023-03-26T00:01:52.683Z,99.90
2023-03-26T00:04:21.700Z,99.90
2023-03-26T00:06:50.832Z,99.90
2023-03-26T00:09:19.192Z,99.90
2023-03-26T00:11:47.291Z,99.90
2023-03-26T00:14:17.879Z,99.90
2023-03-26T00:16:47.469Z,99.90
2023-03-26T00:19:15.625Z,99.90
2023-03-26T00:21:43.427Z,99.90
2023-03-26T00:24:16.147Z,99.90
2023-03-26T00:26:44.759Z,99.90
2023-03-26T00:29:13.859Z,99.90
2023-03-26T00:31:46.331Z,99.90
2023-03-26T00:34:15.553Z,99.90
2023-03-26T00:36:43.919Z,99.90
2023-03-26T00:39:14.108Z,99.90
2023-03-26T00:41:43.254Z,99.90
2023-03-26T00:44:12.257Z,99.90
2023-03-26T00:46:40.472Z,99.90
2023-03-26T00:49:10.709Z,99.90
2023-03-26T00:51:39.158Z,99.90
2023-03-26T00:54:08.258Z,99.90
2023-03-26T00:56:38.673Z,99.90
2023-03-26T00:59:06.618Z,99.90
2023-03-26T01:01:34.490Z,99.90
2023-03-26T01:04:24.187Z,99.90
2023-03-26T01:06:52.274Z,99.90
2023-03-26T01:09:21.882Z,99.90
2023-03-26T01:11:51.383Z,99.90
2023-03-26T01:14:21.212Z,99.90
2023-03-26T01:16:52.866Z,99.90
2023-03-26T01:19:29.683Z,99.90
2023-03-26T01:21:58.858Z,99.90
2023-03-26T01:24:28.146Z,99.90
2023-03-26T01:27:09.593Z,99.90
2023-03-26T01:29:43.560Z,99.90
2023-03-26T01:32:23.537Z,99.90
2023-03-26T01:35:02.852Z,99.90
2023-03-26T01:37:38.794Z,99.90
2023-03-26T01:40:18.539Z,99.90
2023-03-26T01:42:53.052Z,99.90
2023-03-26T01:45:24.873Z,99.90
2023-03-26T01:47:54.494Z,99.90
2023-03-26T01:50:22.365Z,99.90
2023-03-26T01:52:50.209Z,99.90
2023-03-26T01:55:19.888Z,99.90
2023-03-26T01:57:57.998Z,99.90
2023-03-26T02:00:31.002Z,99.90
2023-03-26T02:03:09.894Z,99.90
2023-03-26T02:05:43.891Z,99.90
2023-03-26T02:08:20.955Z,99.90
2023-03-26T02:10:54.822Z,99.90
2023-03-26T02:13:23.423Z,99.90
2023-03-26T02:16:00.322Z,99.90
2023-03-26T02:18:36.223Z,99.90
2023-03-26T02:21:06.297Z,99.90
2023-03-26T02:23:35.795Z,99.90
2023-03-26T02:26:07.486Z,99.90
2023-03-26T02:28:38.889Z,99.90
2023-03-26T02:31:10.971Z,99.90
2023-03-26T02:33:39.487Z,99.90
2023-03-26T02:36:08.685Z,99.90
2023-03-26T02:38:37.004Z,99.90
2023-03-26T02:41:07.435Z,99.90
2023-03-26T02:43:52.397Z,99.90
2023-03-26T02:46:23.429Z,99.90
2023-03-26T02:49:11.482Z,99.90
2023-03-26T02:51:39.967Z,99.90
2023-03-26T02:54:20.409Z,99.90
2023-03-26T02:56:56.120Z,99.90
2023-03-26T02:59:46.322Z,99.90
2023-03-26T03:02:40.291Z,99.90
2023-03-26T03:05:27.102Z,99.90
2023-03-26T03:08:08.085Z,99.90
2023-03-26T03:10:39.505Z,99.90
2023-03-26T03:13:13.648Z,99.90
2023-03-26T03:15:41.533Z,99.90
2023-03-26T03:18:09.346Z,99.90
2023-03-26T03:20:37.725Z,99.90
2023-03-26T03:23:05.606Z,99.90
2023-03-26T03:25:33.783Z,99.90
2023-03-26T03:28:02.094Z,99.90
2023-03-26T03:30:31.386Z,99.90
2023-03-26T03:33:13.566Z,99.90
2023-03-26T03:35:42.627Z,99.90
2023-03-26T03:38:11.640Z,99.90
2023-03-26T03:40:47.978Z,99.90
2023-03-26T03:43:16.377Z,99.90
2023-03-26T03:46:04.074Z,99.90
2023-03-26T03:48:38.289Z,99.90
2023-03-26T03:51:07.799Z,99.90
2023-03-26T03:53:56.614Z,99.90
2023-03-26T03:56:36.067Z,99.90
2023-03-26T03:59:22.811Z,99.90
2023-03-26T04:01:51.986Z,99.90
2023-03-26T04:04:34.337Z,99.90
2023-03-26T04:07:05.383Z,99.90
2023-03-26T04:09:48.059Z,99.90
2023-03-26T04:12:20.673Z,99.90
2023-03-26T04:15:01.585Z,99.90
2023-03-26T04:17:31.350Z,99.90
2023-03-26T04:20:07.142Z,99.90
2023-03-26T04:22:36.565Z,99.90
2023-03-26T04:25:08.182Z,99.90
2023-03-26T04:27:47.811Z,99.90
2023-03-26T04:30:38.248Z,99.90
2023-03-26T04:33:22.030Z,99.90
2023-03-26T04:35:49.911Z,99.90
2023-03-26T04:38:18.916Z,99.90
2023-03-26T04:40:50.112Z,99.90
2023-03-26T04:43:36.358Z,99.90
2023-03-26T04:46:22.268Z,99.90
2023-03-26T04:49:01.109Z,99.90
2023-03-26T04:51:38.311Z,99.90
2023-03-26T04:54:15.109Z,99.90
2023-03-26T04:56:58.698Z,99.90
2023-03-26T04:59:52.632Z,99.90
2023-03-26T05:02:20.451Z,99.90
2023-03-26T05:04:57.117Z,99.90
2023-03-26T05:07:28.220Z,99.90
2023-03-26T05:09:58.218Z,99.90
2023-03-26T05:12:38.138Z,99.90
2023-03-26T05:15:11.899Z,99.90
2023-03-26T05:17:58.134Z,99.90
2023-03-26T05:20:41.500Z,99.90
2023-03-26T05:23:11.088Z,99.90
2023-03-26T05:25:42.481Z,99.90
2023-03-26T05:28:19.214Z,99.90
2023-03-26T05:30:55.930Z,99.90
2023-03-26T05:33:25.878Z,99.90
2023-03-26T05:36:03.691Z,99.90
2023-03-26T05:38:33.487Z,99.90
2023-03-26T05:41:05.059Z,99.90
2023-03-26T05:43:34.754Z,99.90
2023-03-26T05:46:09.248Z,99.90
2023-03-26T05:48:38.084Z,99.90
2023-03-26T05:51:08.851Z,99.90
2023-03-26T05:53:40.445Z,99.90
2023-03-26T05:56:14.409Z,99.90
2023-03-26T05:59:05.160Z,99.90
2023-03-26T06:01:54.458Z,99.90
2023-03-26T06:04:45.819Z,99.90
2023-03-26T06:07:39.121Z,99.90
2023-03-26T06:10:19.050Z,99.90
2023-03-26T06:12:47.483Z,99.90
2023-03-26T06:15:15.672Z,99.90
2023-03-26T06:17:48.337Z,99.90
2023-03-26T06:20:37.545Z,99.90
2023-03-26T06:23:13.189Z,99.90
2023-03-26T06:25:54.788Z,99.90
2023-03-26T06:28:42.595Z,99.90
2023-03-26T06:31:35.516Z,99.90
2023-03-26T06:34:17.573Z,99.90
2023-03-26T06:36:45.651Z,99.90
2023-03-26T06:39:14.821Z,99.90
2023-03-26T06:41:51.959Z,99.90
2023-03-26T06:44:40.305Z,99.90
2023-03-26T06:47:37.118Z,99.90
2023-03-26T06:50:23.411Z,99.90
2023-03-26T06:53:12.202Z,99.90
2023-03-26T06:55:55.551Z,99.90
2023-03-26T06:58:37.189Z,99.90
2023-03-26T07:01:44.144Z,99.90
2023-03-26T07:04:31.813Z,99.90
2023-03-26T07:07:20.351Z,99.90
2023-03-26T07:10:08.032Z,99.90
2023-03-26T07:12:52.065Z,99.90
2023-03-26T07:15:37.935Z,99.90
2023-03-26T07:18:29.195Z,99.90
2023-03-26T07:20:57.919Z,99.90
2023-03-26T07:23:31.285Z,99.90
2023-03-26T07:26:31.640Z,99.90
2023-03-26T07:29:23.312Z,99.90
2023-03-26T07:32:19.013Z,99.90
2023-03-26T07:35:16.330Z,99.90
2023-03-26T07:38:32.907Z,99.90
2023-03-26T07:41:20.408Z,99.90
2023-03-26T07:44:27.528Z,99.90
2023-03-26T07:47:26.078Z,99.90
2023-03-26T07:50:18.282Z,99.90
2023-03-26T07:53:07.662Z,99.90
2023-03-26T07:56:05.647Z,99.90
2023-03-26T07:58:59.381Z,99.90
2023-03-26T08:02:01.392Z,99.90
2023-03-26T08:05:05.789Z,99.90
2023-03-26T08:08:02.780Z,99.90
2023-03-26T08:10:41.160Z,99.60
2023-03-26T08:13:20.355Z,97.60
2023-03-26T08:15:55.248Z,96.50
2023-03-26T08:18:33.458Z,95.20
2023-03-26T08:21:08.084Z,93.60
2023-03-26T08:23:50.772Z,91.30
2023-03-26T08:26:30.961Z,90.60
2023-03-26T08:29:07.408Z,89.40
2023-03-26T08:31:38.955Z,89.90
2023-03-26T08:34:11.993Z,89.20
2023-03-26T08:36:40.439Z,88.20
2023-03-26T08:39:09.012Z,87.90
2023-03-26T08:42:05.605Z,87.70
2023-03-26T08:45:19.302Z,84.60
2023-03-26T08:48:24.055Z,84.20
2023-03-26T08:51:27.876Z,84.60
2023-03-26T08:54:25.933Z,82.60
2023-03-26T08:57:04.794Z,81.70
2023-03-26T08:59:56.677Z,78.60
2023-03-26T09:02:47.086Z,79.10
2023-03-26T09:05:30.513Z,78.90
2023-03-26T09:08:54.469Z,78.00
2023-03-26T09:11:50.555Z,78.00
2023-03-26T09:14:58.013Z,76.70
2023-03-26T09:18:07.093Z,76.80
2023-03-26T09:20:56.091Z,75.90
2023-03-26T09:23:54.290Z,72.90
2023-03-26T09:26:28.902Z,72.50
2023-03-26T09:29:36.074Z,72.90
2023-03-26T09:32:21.627Z,72.40
2023-03-26T09:35:13.560Z,71.50
2023-03-26T09:37:58.535Z,70.50
2023-03-26T09:40:37.782Z,69.80
2023-03-26T09:43:40.864Z,68.70
2023-03-26T09:46:22.949Z,68.10
2023-03-26T09:49:22.825Z,67.60
2023-03-26T09:52:12.232Z,65.50
2023-03-26T09:55:00.320Z,66.40
2023-03-26T09:57:49.344Z,66.80
2023-03-26T10:00:28.038Z,66.00
2023-03-26T10:03:19.714Z,65.10
2023-03-26T10:06:17.160Z,64.80
2023-03-26T10:09:03.523Z,63.80
2023-03-26T10:11:40.440Z,62.70
2023-03-26T10:14:18.880Z,61.20
2023-03-26T10:16:59.912Z,60.00
2023-03-26T10:19:47.210Z,60.10
2023-03-26T10:22:39.312Z,60.10
2023-03-26T10:25:23.302Z,59.60
2023-03-26T10:28:00.016Z,58.40
2023-03-26T10:31:06.210Z,59.00
2023-03-26T10:33:42.886Z,58.30
2023-03-26T10:36:29.918Z,58.80
2023-03-26T10:39:36.402Z,59.60
2023-03-26T10:42:16.738Z,58.60
2023-03-26T10:45:10.880Z,58.60
2023-03-26T10:48:04.099Z,58.40
2023-03-26T10:51:07.710Z,57.90
2023-03-26T10:53:40.777Z,57.30
2023-03-26T10:56:16.898Z,57.40
2023-03-26T10:58:48.255Z,57.70
2023-03-26T11:01:27.478Z,57.90
2023-03-26T11:04:02.203Z,58.40
2023-03-26T11:06:41.703Z,58.90
2023-03-26T11:09:23.690Z,59.30
2023-03-26T11:11:56.780Z,59.50
2023-03-26T11:14:34.927Z,59.60
2023-03-26T11:17:40.708Z,60.20
2023-03-26T11:20:10.839Z,61.30
2023-03-26T11:22:51.236Z,63.60
2023-03-26T11:25:44.779Z,64.00
2023-03-26T11:28:27.478Z,65.30
2023-03-26T11:31:00.038Z,65.90
2023-03-26T11:33:32.965Z,64.90
2023-03-26T11:36:04.882Z,66.40
2023-03-26T11:38:38.377Z,67.80
2023-03-26T11:41:12.158Z,69.50
2023-03-26T11:43:56.420Z,70.60
2023-03-26T11:46:27.354Z,72.20
2023-03-26T11:48:59.393Z,74.00
2023-03-26T11:51:32.844Z,76.20
2023-03-26T11:54:03.097Z,77.50
2023-03-26T11:56:34.172Z,78.90
2023-03-26T11:59:05.588Z,80.90
2023-03-26T12:01:45.326Z,83.00
2023-03-26T12:04:15.763Z,87.60
2023-03-26T12:06:53.461Z,91.60
2023-03-26T12:09:22.763Z,93.30
2023-03-26T12:11:55.664Z,95.90
2023-03-26T12:14:27.111Z,99.20
2023-03-26T12:16:59.986Z,99.90
2023-03-26T12:19:28.949Z,99.90
2023-03-26T12:21:57.037Z,99.90
2023-03-26T12:24:31.802Z,99.90
2023-03-26T12:27:02.082Z,99.90
2023-03-26T12:29:34.381Z,99.90
2023-03-26T12:32:08.226Z,99.90
2023-03-26T12:34:38.211Z,99.90
2023-03-26T12:37:08.281Z,99.90
2023-03-26T12:40:08.660Z,99.90
2023-03-26T12:44:46.733Z,99.90
2023-03-26T12:45:23.826Z,99.90
2023-03-26T12:48:02.259Z,99.90
2023-03-26T12:50:45.536Z,99.90
2023-03-26T12:53:27.234Z,99.90
2023-03-26T12:56:10.150Z,99.90
2023-03-26T12:58:55.042Z,99.90
2023-03-26T13:01:37.532Z,99.90
2023-03-26T13:04:40.092Z,99.90
2023-03-26T13:07:18.050Z,99.90
2023-03-26T13:10:22.740Z,99.90
2023-03-26T13:12:58.446Z,99.90
2023-03-26T13:15:28.865Z,99.90
2023-03-26T13:18:08.599Z,99.90
2023-03-26T13:20:50.405Z,99.90
2023-03-26T13:23:28.297Z,99.90
2023-03-26T13:26:06.120Z,99.90
2023-03-26T13:28:46.187Z,99.90
2023-03-26T13:31:23.042Z,99.90
2023-03-26T13:33:58.582Z,99.90
2023-03-26T13:36:40.167Z,99.90
2023-03-26T13:39:19.242Z,99.90
2023-03-26T13:42:11.604Z,99.90
2023-03-26T13:44:53.765Z,99.90
2023-03-26T13:47:37.102Z,99.90
2023-03-26T13:50:09.909Z,99.90
2023-03-26T13:52:45.399Z,99.90
2023-03-26T13:55:23.129Z,99.90
2023-03-26T13:57:58.678Z,99.90
2023-03-26T14:00:32.675Z,99.90
2023-03-26T14:03:04.913Z,99.90
2023-03-26T14:05:38.015Z,99.90
2023-03-26T14:08:13.650Z,99.90
2023-03-26T14:10:46.596Z,99.90
2023-03-26T14:13:19.754Z,99.90
2023-03-26T14:15:51.937Z,99.90
2023-03-26T14:18:36.633Z,99.90
2023-03-26T14:21:23.238Z,99.90
2023-03-26T14:24:17.180Z,99.90
2023-03-26T14:27:02.550Z,99.90
2023-03-26T14:29:38.867Z,99.90
2023-03-26T14:32:24.152Z,99.90
2023-03-26T14:35:02.826Z,99.90
2023-03-26T14:37:44.401Z,99.90
2023-03-26T14:40:28.817Z,99.90
2023-03-26T14:43:05.620Z,99.90
2023-03-26T14:46:00.257Z,99.90
2023-03-26T14:48:51.367Z,99.90
2023-03-26T14:51:30.928Z,99.90
2023-03-26T14:54:03.589Z,99.90
2023-03-26T14:56:48.561Z,99.90
2023-03-26T14:59:56.703Z,99.90
2023-03-26T15:03:08.685Z,99.90
2023-03-26T15:06:05.843Z,99.90
2023-03-26T15:09:10.013Z,99.90
2023-03-26T15:11:46.766Z,99.90
2023-03-26T15:14:41.753Z,99.90
2023-03-26T15:17:38.184Z,99.90
2023-03-26T15:20:35.540Z,99.90
2023-03-26T15:23:29.313Z,99.90
2023-03-26T15:26:50.995Z,99.90
2023-03-26T15:29:50.175Z,99.90
2023-03-26T15:32:52.664Z,99.90
2023-03-26T15:35:42.594Z,99.90
2023-03-26T15:38:43.249Z,99.90
2023-03-26T15:41:18.420Z,99.90
2023-03-26T15:44:23.431Z,99.90
2023-03-26T15:47:02.189Z,99.90
2023-03-26T15:49:39.703Z,99.90
2023-03-26T15:52:20.578Z,99.90
2023-03-26T15:54:54.912Z,99.90
2023-03-26T15:57:31.533Z,99.90
2023-03-26T16:00:22.834Z,99.90
2023-03-26T16:03:09.088Z,99.90
2023-03-26T16:05:47.970Z,99.90
2023-03-26T16:08:27.175Z,99.90
2023-03-26T16:10:57.310Z,99.90
2023-03-26T16:13:34.260Z,99.90
2023-03-26T16:16:22.446Z,99.90
2023-03-26T16:18:56.474Z,99.90
2023-03-26T16:21:55.661Z,99.90
2023-03-26T16:24:34.913Z,99.90
2023-03-26T16:27:26.188Z,99.90
2023-03-26T16:30:33.005Z,99.90
2023-03-26T16:33:13.943Z,99.90
2023-03-26T16:36:02.802Z,99.90
2023-03-26T16:38:50.444Z,99.90
2023-03-26T16:41:20.295Z,99.90
2023-03-26T16:44:14.598Z,99.90
2023-03-26T16:46:53.495Z,99.90
2023-03-26T16:49:38.500Z,99.90
2023-03-26T16:52:23.926Z,99.90
2023-03-26T16:54:58.212Z,99.90
2023-03-26T16:57:28.498Z,99.90
2023-03-26T17:00:23.444Z,99.90
2023-03-26T17:03:03.385Z,99.90
2023-03-26T17:05:38.009Z,99.90
2023-03-26T17:08:16.330Z,99.90
2023-03-26T17:10:56.863Z,99.90
2023-03-26T17:13:33.485Z,99.90
2023-03-26T17:16:11.749Z,99.90
2023-03-26T17:18:50.964Z,99.90
2023-03-26T17:21:24.661Z,99.90
2023-03-26T17:24:15.388Z,99.90
2023-03-26T17:26:59.863Z,99.90
2023-03-26T17:29:40.753Z,99.90
2023-03-26T17:32:12.372Z,99.90
2023-03-26T17:34:53.139Z,99.90
2023-03-26T17:37:52.964Z,99.90
2023-03-26T17:40:30.267Z,99.90
2023-03-26T17:43:04.805Z,99.90
2023-03-26T17:45:36.077Z,99.90
2023-03-26T17:48:11.122Z,99.90
2023-03-26T17:50:46.840Z,99.90
2023-03-26T17:53:20.758Z,99.90
2023-03-26T17:55:51.210Z,99.90
2023-03-26T17:58:26.927Z,99.90
2023-03-26T18:01:04.916Z,99.90
2023-03-26T18:03:37.158Z,99.90
2023-03-26T18:06:13.862Z,99.90
2023-03-26T18:09:06.955Z,99.90
2023-03-26T18:12:05.152Z,99.90
2023-03-26T18:15:15.648Z,99.90
2023-03-26T18:17:46.178Z,99.90
2023-03-26T18:20:23.306Z,99.90
2023-03-26T18:22:53.597Z,99.90
2023-03-26T18:25:27.973Z,99.90
2023-03-26T18:27:58.119Z,99.90
2023-03-26T18:30:26.993Z,99.90
2023-03-26T18:33:01.999Z,99.90
2023-03-26T18:35:40.720Z,99.90
2023-03-26T18:38:16.917Z,99.90
2023-03-26T18:40:46.373Z,99.90
2023-03-26T18:43:28.655Z,99.90
2023-03-26T18:46:02.673Z,99.90
2023-03-26T18:48:30.721Z,99.90
2023-03-26T18:51:05.077Z,99.90
2023-03-26T18:53:40.280Z,99.90
2023-03-26T18:56:20.813Z,99.90
2023-03-26T18:58:52.873Z,99.90
2023-03-26T19:01:25.985Z,99.90
2023-03-26T19:03:55.292Z,99.90
2023-03-26T19:06:24.290Z,99.90
2023-03-26T19:08:54.362Z,99.90
2023-03-26T19:11:22.310Z,99.90
2023-03-26T19:14:04.019Z,99.90
2023-03-26T19:16:36.762Z,99.90
2023-03-26T19:19:08.165Z,99.90
2023-03-26T19:21:37.454Z,99.90
2023-03-26T19:24:07.582Z,99.90
2023-03-26T19:26:36.495Z,99.90
2023-03-26T19:29:05.916Z,99.90
2023-03-26T19:31:36.517Z,99.90
2023-03-26T19:34:15.539Z,99.90
2023-03-26T19:36:57.966Z,99.90
2023-03-26T19:39:37.898Z,99.90
2023-03-26T19:42:07.017Z,99.90
2023-03-26T19:44:39.459Z,99.90
2023-03-26T19:47:09.250Z,99.90
2023-03-26T19:49:48.570Z,99.90
2023-03-26T19:52:21.138Z,99.90
2023-03-26T19:54:59.532Z,99.90
2023-03-26T19:57:31.869Z,99.90
2023-03-26T20:00:00.627Z,99.90
2023-03-26T20:02:29.035Z,99.90
2023-03-26T20:04:57.025Z,99.90
2023-03-26T20:07:35.716Z,99.90
2023-03-26T20:10:07.999Z,99.90
2023-03-26T20:12:35.815Z,99.90
2023-03-26T20:15:19.609Z,99.90
2023-03-26T20:17:50.052Z,99.90
2023-03-26T20:20:18.187Z,99.90
2023-03-26T20:22:46.813Z,99.90
2023-03-26T20:25:21.082Z,99.90
2023-03-26T20:27:49.061Z,99.90
2023-03-26T20:30:27.493Z,99.90
2023-03-26T20:33:11.792Z,99.90
2023-03-26T20:35:41.192Z,99.90
2023-03-26T20:38:09.738Z,99.90
2023-03-26T20:40:39.377Z,99.90
2023-03-26T20:43:12.726Z,99.90
2023-03-26T20:45:41.542Z,99.90
2023-03-26T20:48:10.937Z,99.90
2023-03-26T20:50:50.504Z,99.90
2023-03-26T20:53:20.229Z,99.90
2023-03-26T20:55:51.470Z,99.90
2023-03-26T20:58:31.356Z,99.90
2023-03-26T21:01:01.601Z,99.90
2023-03-26T21:03:29.573Z,99.90
2023-03-26T21:06:01.050Z,99.90
2023-03-26T21:08:34.935Z,99.90
2023-03-26T21:11:06.366Z,99.90
2023-03-26T21:13:39.914Z,99.90
2023-03-26T21:16:09.148Z,99.90
2023-03-26T21:18:37.831Z,99.90
2023-03-26T21:21:21.029Z,99.90
2023-03-26T21:23:59.196Z,99.90
2023-03-26T21:26:34.343Z,99.90
2023-03-26T21:29:09.789Z,99.90
2023-03-26T21:31:38.902Z,99.90
2023-03-26T21:34:08.289Z,99.90
2023-03-26T21:36:36.774Z,99.90
2023-03-26T21:39:06.320Z,99.90
2023-03-26T21:41:43.575Z,99.90
2023-03-26T21:44:11.748Z,99.90
2023-03-26T21:46:42.592Z,99.90
2023-03-26T21:49:11.190Z,99.90
2023-03-26T21:51:39.805Z,99.90
2023-03-26T21:54:18.477Z,99.90
2023-03-26T21:56:54.406Z,99.90
2023-03-26T21:59:33.566Z,99.90
2023-03-26T22:02:07.980Z,99.90
2023-03-26T22:04:40.142Z,99.90
2023-03-26T22:07:13.685Z,99.90
2023-03-26T22:09:43.659Z,99.90
2023-03-26T22:12:13.255Z,99.90
2023-03-26T22:14:41.288Z,99.90
2023-03-26T22:17:09.190Z,99.90
2023-03-26T22:19:37.116Z,99.90
2023-03-26T22:22:05.324Z,99.90
2023-03-26T22:24:34.289Z,99.90
2023-03-26T22:27:02.145Z,99.90
2023-03-26T22:29:31.569Z,99.90
2023-03-26T22:31:59.361Z,99.90
2023-03-26T22:34:27.110Z,99.90
2023-03-26T22:36:54.961Z,99.90
2023-03-26T22:39:22.699Z,99.90
2023-03-26T22:41:50.444Z,99.90
2023-03-26T22:44:20.256Z,99.90
2023-03-26T22:46:51.295Z,99.90
2023-03-26T22:49:19.481Z,99.90
2023-03-26T22:51:47.271Z,99.90
2023-03-26T22:54:15.089Z,99.90
2023-03-26T22:56:43.506Z,99.90
2023-03-26T22:59:11.365Z,99.90
2023-03-26T23:01:39.255Z,99.90
2023-03-26T23:04:08.482Z,99.90
2023-03-26T23:06:36.760Z,99.90
2023-03-26T23:09:07.026Z,99.90
2023-03-26T23:11:35.307Z,99.90
2023-03-26T23:14:03.324Z,99.90
2023-03-26T23:16:31.750Z,99.90
2023-03-26T23:18:59.589Z,99.90
2023-03-26T23:21:28.657Z,99.90
2023-03-26T23:23:56.463Z,99.90
2023-03-26T23:26:24.514Z,99.90
2023-03-26T23:28:52.764Z,99.90
2023-03-26T23:31:20.594Z,99.90
2023-03-26T23:33:50.119Z,99.90
2023-03-26T23:36:19.593Z,99.90
2023-03-26T23:38:49.734Z,99.90
2023-03-26T23:41:19.684Z,99.90
2023-03-26T23:43:54.171Z,99.90
2023-03-26T23:46:23.931Z,99.90
2023-03-26T23:48:52.220Z,99.90
2023-03-26T23:51:20.950Z,99.90
2023-03-26T23:53:50.415Z,99.90
2023-03-26T23:56:19.057Z,99.90
2023-03-26T23:58:47.686Z,99.90
